Thompson, Canada
Current Conditions -  °F | °C
As of 8:00 AM on Saturday 22 Nov 2014 (Local Time) from CYTH Reporting Station
Ice Pellets Ice Pellets  
Wind Chill: -13°   Ceiling: 2000
Heat Index: -13°   Visibility: 15mi
Dew Point: -18°   Wind: 2mph
Humidity: 77%   Direction: 10°N
Pressure: 29.7"   Gusts: NA
Location:  55.74°N, 97.85°W
Report Text: CYTH 221400Z 01002KT 15SM IC BKN020 M25/M28 A2970 RMK SC5 SLP085
Loading
Personal Weather Stations






























Interactive Weather Map New forecast layout! Learn more

10-Day Weather Forecast

Advertisements
Track Severe Weather on mobile